Maryland METAR Reports


Distance/Direction noted is from Ellicott City, MD as the crow flies

KCBE - Cumberland - 118 miles WNW
Updated: Fri, 10/31/2014 5:36 AM
Overcast
Overcast
 Wind from calm
Wind: Calm
Temperature: 45°F
Dew Point: 37°F
Humidity: 76%
Barometer: 30.04 inHg
Clouds: Overcast
Visibility: 10 miles
Cloud Details: Overcast 5000 ft
2014/10/31 09:36 KCBE 310936Z AUTO 00000KT 10SM OVC050 07/03 A3004 RMK AO1
KHGR - Hagerstown - 57 miles NW
Updated: Fri, 10/31/2014 4:53 AM
Overcast
Overcast
 Wind from calm
Wind: Calm
Temperature: 45°F
Dew Point: 36°F
Humidity: 71%
Barometer: 30.00 inHg
Clouds: Overcast
Visibility: 10 miles
Cloud Details: Overcast 5500 ft
2014/10/31 08:53 KHGR 310853Z AUTO 00000KT 10SM OVC055 07/02 A3000 RMK AO2 SLP169 T00670022 56010
 
KFDK - Frederick - 34 miles NW
Updated: Fri, 10/31/2014 5:35 AM
Overcast
Overcast
 Wind from NE
Wind: NE 3 mph
Temperature: 46°F
Dew Point: 43°F
Humidity: 87%
Barometer: 30.04 inHg
Clouds: Overcast
Visibility: 10 miles
Cloud Details: Overcast 6000 ft
2014/10/31 09:35 KFDK 310935Z AUTO 04003KT 10SM OVC060 08/06 A3004 RMK AO2
KGAI - Gaithersburg - 26 miles SW
Updated: Fri, 10/31/2014 5:35 AM
Overcast
Overcast
 Wind from calm
Wind: Calm
Temperature: 45°F
Dew Point: 37°F
Humidity: 76%
Barometer: 30.04 inHg
Clouds: Overcast
Visibility: 10 miles
Cloud Details: Overcast 5000 ft
2014/10/31 09:35 KGAI 310935Z 00000KT 10SM OVC050 07/03 A3004 RMK AO1
 
KBWI - BWI Airport - 15 miles SE
Updated: Fri, 10/31/2014 4:54 AM
Mostly Cloudy
Mostly Cloudy
 Wind from calm
Wind: Calm
Temperature: 46°F
Dew Point: 41°F
Humidity: 82%
Barometer: 30.00 inHg
Clouds: Mostly Cloudy
Visibility: 10 miles
Cloud Details: Mostly Cloudy 5500 ft
2014/10/31 08:54 KBWI 310854Z 00000KT 10SM BKN055 08/05 A3000 RMK AO2 SLP160 T00830050 58005
KNAK - Annapolis - 32 miles SSE
Updated: Fri, 10/31/2014 4:54 AM
Overcast
Overcast
 Wind from ENE
Wind: ENE 3 mph
Temperature: 50°F
Dew Point: 39°F
Humidity: 67%
Barometer: 30.01 inHg
Clouds: Overcast
Visibility: 10 miles
Cloud Details: Overcast 6000 ft
2014/10/31 08:54 KNAK 310854Z AUTO 06003KT 10SM OVC060 10/04 A3001 RMK AO2 SLP163 T01000039 56004
 
KESN - Easton - 63 miles SE
Updated: Fri, 10/31/2014 5:49 AM
Overcast
Overcast
 Wind from calm
Wind: Calm
Temperature: 46°F
Dew Point: 41°F
Humidity: 82%
Barometer: 30.05 inHg
Clouds: Overcast
Visibility: 10 miles
Cloud Details: Overcast 6000 ft
2014/10/31 09:49 KESN 310949Z AUTO 00000KT 10SM OVC060 08/05 A3005 RMK AO2 T00750053
KSBY - Salisbury - 112 miles SE
Updated: Fri, 10/31/2014 4:54 AM
Clear
Clear
 Wind from calm
Wind: Calm
Temperature: 45°F
Dew Point: 37°F
Humidity: 76%
Barometer: 29.99 inHg
Clouds: Clear
Visibility: 10 miles
2014/10/31 08:54 KSBY 310854Z AUTO 00000KT 10SM CLR 07/03 A2999 RMK AO2 SLP159 T00670028 55005